Time;durP1;ratioP1;P1;durP2;ratioP2;P2;SDS_P1;SDS_P2;PMS_P1;PMS_P2;Temp;Humidity;BMP_temperature;BMP_pressure;BME280_temperature;BME280_humidity;BME280_pressure;Samples;Min_cycle;Max_cycle;Signal;HPM_P1;HPM_P2
2021/05/06 00:02:42;;;;;;;3.07;2.00;;;7.00;99.90;;;;;;5093130;28;21225;-91
2021/05/06 00:08:11;;;;;;;2.83;2.07;;;7.00;99.90;;;;;;5051012;28;21184;-93
2021/05/06 00:30:05;;;;;;;1.83;1.10;;;7.10;99.90;;;;;;5096065;28;20567;-88
2021/05/06 00:32:33;;;;;;;3.23;1.90;;;7.20;99.90;;;;;;5099603;28;20706;-90
2021/05/06 00:34:59;;;;;;;4.73;2.20;;;7.10;99.90;;;;;;5092942;28;20635;-88
2021/05/06 00:37:26;;;;;;;4.90;1.90;;;7.10;99.90;;;;;;5101837;28;20631;-86
2021/05/06 00:39:57;;;;;;;2.87;1.87;;;7.10;99.90;;;;;;5103872;28;20620;-86
2021/05/06 00:42:37;;;;;;;2.97;1.60;;;7.10;99.90;;;;;;5099548;27;20655;-86
2021/05/06 00:45:51;;;;;;;1.43;1.30;;;7.10;99.90;;;;;;5092230;28;20622;-87
2021/05/06 00:54:22;;;;;;;2.30;1.60;;;6.90;99.90;;;;;;5044038;28;20779;-87
2021/05/06 00:56:55;;;;;;;2.20;1.60;;;6.90;99.90;;;;;;5086634;28;20628;-86
2021/05/06 01:04:57;;;;;;;1.50;1.40;;;7.00;99.90;;;;;;5099468;28;20622;-86
2021/05/06 01:07:43;;;;;;;1.53;1.43;;;7.00;99.90;;;;;;5113728;28;20623;-86
2021/05/06 01:10:27;;;;;;;3.33;1.70;;;7.00;99.90;;;;;;5095009;28;20623;-87
2021/05/06 01:12:54;;;;;;;1.67;1.57;;;7.00;99.90;;;;;;5091162;28;20672;-86
2021/05/06 01:15:21;;;;;;;2.83;1.20;;;7.00;99.90;;;;;;5092619;28;20715;-87
2021/05/06 01:17:47;;;;;;;2.40;1.90;;;6.90;99.90;;;;;;5102212;28;20621;-86
2021/05/06 01:20:14;;;;;;;2.60;1.97;;;6.80;99.90;;;;;;5111472;28;20618;-86
2021/05/06 01:22:42;;;;;;;3.30;1.93;;;6.80;99.90;;;;;;5100771;28;20652;-88
2021/05/06 01:25:09;;;;;;;2.30;1.80;;;6.80;99.90;;;;;;5103952;28;20694;-86
2021/05/06 01:27:41;;;;;;;2.33;2.10;;;6.70;99.90;;;;;;5114966;27;20698;-87
2021/05/06 01:30:19;;;;;;;2.30;2.10;;;6.70;99.90;;;;;;5111108;28;20611;-87
2021/05/06 01:32:49;;;;;;;2.23;1.97;;;6.60;99.90;;;;;;5111544;28;20705;-88
2021/05/06 01:35:19;;;;;;;5.43;1.70;;;6.50;99.90;;;;;;5104916;28;21062;-88
2021/05/06 01:37:56;;;;;;;2.93;1.87;;;6.60;99.90;;;;;;5105825;28;20858;-87
2021/05/06 01:40:49;;;;;;;2.53;1.90;;;6.60;99.90;;;;;;5104169;28;20695;-88
2021/05/06 01:43:25;;;;;;;1.60;1.50;;;6.70;99.90;;;;;;5112841;27;20648;-89
2021/05/06 01:46:10;;;;;;;3.17;2.23;;;6.70;99.90;;;;;;5117185;28;20657;-88
2021/05/06 01:49:01;;;;;;;2.70;2.17;;;6.70;99.90;;;;;;5104322;28;20644;-87
2021/05/06 01:59:45;;;;;;;2.57;2.30;;;6.70;99.90;;;;;;5096199;28;20580;-88
2021/05/06 02:02:14;;;;;;;2.40;1.90;;;6.70;99.90;;;;;;5107357;28;20656;-87
2021/05/06 02:04:41;;;;;;;2.93;1.70;;;6.80;99.90;;;;;;5113120;28;20595;-88
2021/05/06 02:07:07;;;;;;;3.47;1.97;;;6.80;99.90;;;;;;5103090;28;20628;-89
2021/05/06 02:09:35;;;;;;;4.40;2.10;;;6.80;99.90;;;;;;5097991;28;20692;-87
2021/05/06 02:12:04;;;;;;;1.70;1.50;;;6.90;99.90;;;;;;5104736;28;20670;-89
2021/05/06 02:14:31;;;;;;;3.03;1.93;;;6.90;99.90;;;;;;5094679;28;20748;-88
2021/05/06 02:16:57;;;;;;;2.67;2.10;;;6.90;99.90;;;;;;5110941;28;20596;-89
2021/05/06 02:19:28;;;;;;;2.50;1.83;;;7.00;99.90;;;;;;5103978;28;20677;-84
2021/05/06 02:21:56;;;;;;;3.07;1.73;;;7.00;99.90;;;;;;5102726;28;21095;-87
2021/05/06 02:24:23;;;;;;;2.60;2.00;;;7.00;99.90;;;;;;5105462;28;20643;-87
2021/05/06 02:26:50;;;;;;;3.23;1.80;;;7.10;99.90;;;;;;5110077;28;20636;-90
2021/05/06 02:29:16;;;;;;;4.57;1.70;;;7.10;99.90;;;;;;5105544;28;20620;-89
2021/05/06 02:31:42;;;;;;;2.53;1.80;;;7.00;99.90;;;;;;5111478;28;20616;-90
2021/05/06 02:34:09;;;;;;;3.33;1.90;;;7.00;99.90;;;;;;5109048;28;20664;-89
2021/05/06 02:36:35;;;;;;;2.73;2.30;;;7.00;99.90;;;;;;5108637;28;20694;-89
2021/05/06 02:39:02;;;;;;;2.47;1.97;;;7.00;99.90;;;;;;5106016;28;20704;-89
2021/05/06 02:41:37;;;;;;;2.80;2.50;;;6.90;99.90;;;;;;5104887;28;20629;-89
2021/05/06 02:44:05;;;;;;;2.90;2.27;;;6.80;99.90;;;;;;5109614;28;20644;-88
2021/05/06 02:46:34;;;;;;;2.57;2.33;;;6.70;99.90;;;;;;5100682;28;20624;-88
2021/05/06 02:49:02;;;;;;;3.57;2.60;;;6.80;99.90;;;;;;5104672;28;20692;-88
2021/05/06 02:51:31;;;;;;;3.97;3.10;;;6.70;99.90;;;;;;5105905;28;20636;-88
2021/05/06 02:53:58;;;;;;;2.77;2.07;;;6.70;99.90;;;;;;5098202;28;20664;-88
2021/05/06 02:56:33;;;;;;;4.00;2.73;;;6.70;99.90;;;;;;5093092;28;20621;-88
2021/05/06 03:04:34;;;;;;;4.00;2.40;;;6.70;99.90;;;;;;5094495;28;21259;-87
2021/05/06 03:07:03;;;;;;;2.30;2.10;;;6.70;99.90;;;;;;5096600;28;20659;-87
2021/05/06 03:09:38;;;;;;;7.23;3.00;;;6.80;99.90;;;;;;5091506;28;20989;-89
2021/05/06 03:12:18;;;;;;;3.00;2.67;;;6.80;99.90;;;;;;5096834;28;20626;-87
2021/05/06 03:23:01;;;;;;;3.23;2.47;;;6.90;99.90;;;;;;5100906;28;20636;-87
2021/05/06 03:25:29;;;;;;;4.40;2.43;;;6.90;99.90;;;;;;5088741;28;20695;-87
2021/05/06 03:27:59;;;;;;;3.60;2.60;;;6.90;99.90;;;;;;5094719;28;20616;-88
2021/05/06 03:30:54;;;;;;;6.20;2.57;;;7.00;99.90;;;;;;5093844;28;20625;-88
2021/05/06 03:41:51;;;;;;;4.93;2.57;;;6.90;99.90;;;;;;5105178;28;20611;-90
2021/05/06 03:44:31;;;;;;;4.17;2.93;;;6.70;99.90;;;;;;5089817;28;20615;-89
2021/05/06 03:50:24;;;;;;;3.53;2.77;;;6.60;99.90;;;;;;5097601;28;21197;-89
2021/05/06 04:15:25;;;;;;;3.53;2.10;;;6.00;99.90;;;;;;5084737;28;20632;-90
2021/05/06 04:17:58;;;;;;;2.57;2.03;;;5.90;99.90;;;;;;5105739;28;20667;-90
2021/05/06 04:26:03;;;;;;;7.17;3.10;;;6.00;99.90;;;;;;5104187;28;20766;-88
2021/05/06 04:29:26;;;;;;;3.57;2.30;;;5.90;99.90;;;;;;5112050;28;20643;-90
2021/05/06 04:37:03;;;;;;;4.40;3.50;;;5.70;99.90;;;;;;5102841;28;20672;-90
2021/05/06 04:42:40;;;;;;;3.53;3.23;;;5.90;99.90;;;;;;5112706;28;20626;-89
2021/05/06 04:53:31;;;;;;;4.00;3.33;;;6.00;99.90;;;;;;5097458;28;20595;-91
2021/05/06 04:56:03;;;;;;;5.00;3.60;;;6.00;99.90;;;;;;5073699;28;20623;-90
2021/05/06 05:04:05;;;;;;;4.23;3.23;;;6.10;99.90;;;;;;5094746;28;21532;-89
2021/05/06 05:06:34;;;;;;;6.00;3.83;;;6.20;99.90;;;;;;5093876;28;20631;-90
2021/05/06 05:09:12;;;;;;;8.27;3.40;;;6.20;99.90;;;;;;5105464;28;20673;-89
2021/05/06 05:11:48;;;;;;;4.20;3.20;;;6.20;99.90;;;;;;5083436;28;20655;-89
2021/05/06 05:20:09;;;;;;;6.63;3.23;;;6.40;99.90;;;;;;5094792;28;21220;-89
2021/05/06 05:25:26;;;;;;;3.67;2.77;;;6.60;99.90;;;;;;5087112;28;20600;-89
2021/05/06 05:27:55;;;;;;;4.50;3.30;;;6.70;99.90;;;;;;5090509;28;20651;-88
2021/05/06 05:30:24;;;;;;;5.63;3.00;;;6.80;99.90;;;;;;5090442;28;20980;-89
2021/05/06 05:32:52;;;;;;;3.17;2.50;;;6.90;99.90;;;;;;5097120;28;20624;-88
2021/05/06 05:35:29;;;;;;;5.27;3.30;;;7.00;99.90;;;;;;5088012;28;20628;-89
2021/05/06 05:38:05;;;;;;;4.13;3.73;;;7.00;99.90;;;;;;5088047;28;21149;-89
2021/05/06 05:40:36;;;;;;;4.30;3.50;;;6.90;99.90;;;;;;5086091;28;20635;-88
2021/05/06 05:43:11;;;;;;;3.50;3.20;;;6.90;99.90;;;;;;5094913;28;20636;-88
2021/05/06 05:56:40;;;;;;;5.90;3.50;;;7.30;99.90;;;;;;5094893;28;20684;-88
2021/05/06 05:59:06;;;;;;;4.77;4.13;;;7.20;99.90;;;;;;5095408;28;20636;-87
2021/05/06 06:01:36;;;;;;;5.20;4.00;;;7.10;99.90;;;;;;5096063;28;21146;-88
2021/05/06 06:04:06;;;;;;;5.63;3.50;;;7.20;99.90;;;;;;5096368;28;20620;-89
2021/05/06 06:06:33;;;;;;;9.40;4.20;;;7.20;99.90;;;;;;5106519;28;20620;-89
2021/05/06 06:09:00;;;;;;;4.20;3.80;;;7.20;99.90;;;;;;5103951;28;20628;-89
2021/05/06 06:11:27;;;;;;;6.60;4.50;;;7.20;99.90;;;;;;5100197;28;20632;-88
2021/05/06 06:13:54;;;;;;;4.50;4.07;;;7.20;99.90;;;;;;5084113;28;20671;-89
2021/05/06 06:16:27;;;;;;;5.73;3.73;;;7.10;99.90;;;;;;5081588;28;20639;-91
2021/05/06 06:18:55;;;;;;;5.67;4.60;;;7.10;99.90;;;;;;5098033;28;20838;-88
2021/05/06 06:21:25;;;;;;;8.07;4.43;;;7.20;99.90;;;;;;5088724;28;20655;-87
2021/05/06 06:23:53;;;;;;;5.23;4.00;;;7.20;99.90;;;;;;5089820;28;20632;-88
2021/05/06 06:26:20;;;;;;;4.03;3.50;;;7.30;99.90;;;;;;5087551;28;20628;-87
2021/05/06 06:28:49;;;;;;;5.50;3.50;;;7.30;99.90;;;;;;5087707;28;21085;-87
2021/05/06 06:31:18;;;;;;;6.70;4.83;;;7.20;99.90;;;;;;5095474;28;20623;-86
2021/05/06 06:33:45;;;;;;;5.50;3.67;;;7.20;99.90;;;;;;5097451;28;20657;-87
2021/05/06 06:36:12;;;;;;;4.53;3.03;;;7.20;99.90;;;;;;5091004;28;20651;-87
2021/05/06 06:38:39;;;;;;;5.87;4.20;;;7.20;99.90;;;;;;5094027;28;20664;-86
2021/05/06 06:41:09;;;;;;;4.37;3.97;;;7.20;99.90;;;;;;5090995;28;20701;-88
2021/05/06 06:43:36;;;;;;;7.53;3.67;;;7.30;99.90;;;;;;5086941;28;20673;-87
2021/05/06 06:46:04;;;;;;;3.40;3.10;;;7.30;99.90;;;;;;5089218;28;20688;-87
2021/05/06 06:48:30;;;;;;;3.87;3.13;;;7.40;99.90;;;;;;5088726;28;20647;-88
2021/05/06 06:53:41;;;;;;;6.57;2.30;;;7.60;99.90;;;;;;5098584;28;20620;-88
2021/05/06 06:58:51;;;;;;;3.53;2.87;;;7.80;99.90;;;;;;5095222;28;20663;-89
2021/05/06 07:01:17;;;;;;;4.13;2.63;;;7.80;99.90;;;;;;5100633;28;20631;-89
2021/05/06 07:03:44;;;;;;;11.17;3.77;;;7.90;99.90;;;;;;5089215;28;20694;-90
2021/05/06 07:06:11;;;;;;;4.13;3.70;;;7.90;99.90;;;;;;5091711;28;20656;-87
2021/05/06 07:08:41;;;;;;;3.43;2.53;;;7.90;99.90;;;;;;5092405;28;20681;-88
2021/05/06 07:11:09;;;;;;;4.57;2.90;;;8.00;99.90;;;;;;5097915;28;20616;-90
2021/05/06 07:13:35;;;;;;;6.43;3.57;;;8.00;99.90;;;;;;5092235;28;20634;-89
2021/05/06 07:16:03;;;;;;;6.03;3.13;;;8.00;99.90;;;;;;5097384;28;20630;-87
2021/05/06 07:18:32;;;;;;;7.83;2.87;;;8.10;99.90;;;;;;5088046;28;20754;-89
2021/05/06 07:20:59;;;;;;;7.37;3.33;;;8.30;99.90;;;;;;5086691;28;20639;-88
2021/05/06 07:23:31;;;;;;;2.97;2.27;;;8.30;99.90;;;;;;5095532;28;20667;-89
2021/05/06 07:26:20;;;;;;;6.27;3.13;;;8.40;99.90;;;;;;5103313;28;20631;-88
2021/05/06 07:28:47;;;;;;;7.90;3.57;;;8.40;99.90;;;;;;5097666;28;20625;-88
2021/05/06 07:31:15;;;;;;;6.50;2.87;;;8.50;99.90;;;;;;5096134;28;20672;-89
2021/05/06 07:33:44;;;;;;;3.67;2.43;;;8.50;99.90;;;;;;5108354;28;21232;-90
2021/05/06 07:36:11;;;;;;;6.00;2.40;;;8.70;99.90;;;;;;5095708;28;20640;-87
2021/05/06 07:38:38;;;;;;;4.73;3.13;;;8.80;99.90;;;;;;5099031;28;21049;-86
2021/05/06 07:41:07;;;;;;;8.33;2.60;;;9.00;99.90;;;;;;5097868;28;20669;-87
2021/05/06 07:43:35;;;;;;;4.63;2.40;;;9.10;99.90;;;;;;5079021;28;20628;-86
2021/05/06 07:46:01;;;;;;;4.50;2.13;;;9.10;99.90;;;;;;5091781;28;21251;-88
2021/05/06 07:48:28;;;;;;;3.70;2.90;;;9.20;99.90;;;;;;5089737;28;20720;-88
2021/05/06 07:50:55;;;;;;;4.63;2.67;;;9.30;99.90;;;;;;5086351;28;20716;-87
2021/05/06 07:53:24;;;;;;;5.27;2.97;;;9.50;99.90;;;;;;5092751;28;20644;-87
2021/05/06 07:55:52;;;;;;;3.97;2.30;;;9.70;99.90;;;;;;5085661;28;20636;-88
2021/05/06 07:58:19;;;;;;;3.93;2.60;;;9.70;99.90;;;;;;5086485;28;20624;-86
2021/05/06 08:00:46;;;;;;;5.17;3.00;;;9.90;99.90;;;;;;5080111;28;21024;-85
2021/05/06 08:03:12;;;;;;;7.90;3.07;;;9.90;99.90;;;;;;5081621;28;20628;-84
2021/05/06 08:05:39;;;;;;;5.10;3.00;;;10.00;99.90;;;;;;5092829;28;20636;-85
2021/05/06 08:08:06;;;;;;;4.87;2.93;;;10.00;99.90;;;;;;5084938;28;20664;-86
2021/05/06 08:10:32;;;;;;;7.20;3.30;;;10.10;99.90;;;;;;5084241;28;20644;-86
2021/05/06 08:13:02;;;;;;;5.67;2.77;;;10.20;99.90;;;;;;5086399;28;20632;-86
2021/05/06 08:15:28;;;;;;;4.27;2.50;;;10.20;99.90;;;;;;5090504;28;20719;-86
2021/05/06 08:17:55;;;;;;;6.30;2.70;;;10.20;99.90;;;;;;5081649;28;20624;-85
2021/05/06 08:20:22;;;;;;;3.93;2.40;;;10.00;99.90;;;;;;5084558;28;20639;-85
2021/05/06 08:22:48;;;;;;;4.27;2.40;;;10.10;99.90;;;;;;5084159;28;20632;-86
2021/05/06 08:25:16;;;;;;;4.70;2.23;;;10.10;99.90;;;;;;5081142;28;21102;-87
2021/05/06 08:27:43;;;;;;;6.80;2.97;;;10.20;99.90;;;;;;5082480;28;20659;-84
2021/05/06 08:30:12;;;;;;;6.57;2.60;;;10.20;99.90;;;;;;5076557;28;20655;-85
2021/05/06 08:32:39;;;;;;;6.03;2.20;;;10.30;99.90;;;;;;5081251;28;21405;-83
2021/05/06 08:35:07;;;;;;;4.60;2.70;;;10.40;99.90;;;;;;5082238;28;20677;-85
2021/05/06 08:37:34;;;;;;;6.67;2.90;;;10.40;99.90;;;;;;5079979;28;20635;-88
2021/05/06 08:40:01;;;;;;;4.43;2.57;;;10.40;99.90;;;;;;5063148;28;20726;-88
2021/05/06 08:42:28;;;;;;;4.53;2.10;;;10.30;99.90;;;;;;5074785;28;20716;-89
2021/05/06 08:44:55;;;;;;;4.43;2.57;;;10.40;99.90;;;;;;5090718;28;21079;-90
2021/05/06 08:47:22;;;;;;;3.90;3.33;;;10.50;99.90;;;;;;5090397;28;20660;-88
2021/05/06 08:49:50;;;;;;;4.03;2.83;;;10.60;99.90;;;;;;5083058;28;20670;-87
2021/05/06 08:52:19;;;;;;;4.63;3.03;;;10.60;99.90;;;;;;5081353;28;20609;-89
2021/05/06 08:54:47;;;;;;;4.20;2.93;;;10.80;99.90;;;;;;5077901;28;20636;-88
2021/05/06 08:57:14;;;;;;;4.27;2.37;;;10.70;99.90;;;;;;5082804;28;20727;-88
2021/05/06 08:59:41;;;;;;;5.00;2.53;;;10.60;99.90;;;;;;5080005;28;21045;-87
2021/05/06 09:02:08;;;;;;;7.43;2.60;;;10.70;99.90;;;;;;5088896;28;20669;-88
2021/05/06 09:04:35;;;;;;;5.90;2.00;;;10.60;99.90;;;;;;5087975;28;20624;-87
2021/05/06 09:07:03;;;;;;;3.77;2.00;;;10.80;99.90;;;;;;5082425;28;21200;-86
2021/05/06 09:09:34;;;;;;;6.90;2.80;;;10.70;99.90;;;;;;5085598;28;20747;-87
2021/05/06 09:12:02;;;;;;;4.27;2.60;;;10.70;99.90;;;;;;5084670;28;20681;-87
2021/05/06 09:14:36;;;;;;;6.80;2.30;;;10.70;99.90;;;;;;5093597;28;20990;-83
2021/05/06 09:17:03;;;;;;;5.40;2.27;;;10.70;99.90;;;;;;5074899;28;20628;-83
2021/05/06 09:19:29;;;;;;;5.77;3.37;;;10.50;99.90;;;;;;5078390;28;20615;-83
2021/05/06 09:21:56;;;;;;;3.17;1.97;;;10.40;99.90;;;;;;5077163;28;20657;-84
2021/05/06 09:24:25;;;;;;;5.53;2.23;;;10.50;99.90;;;;;;5085388;28;20623;-85
2021/05/06 09:26:54;;;;;;;3.10;2.37;;;10.40;99.90;;;;;;5083959;28;20640;-84
2021/05/06 09:29:32;;;;;;;5.40;2.63;;;10.50;99.90;;;;;;5085154;28;20928;-85
2021/05/06 09:32:09;;;;;;;5.33;2.10;;;10.30;99.90;;;;;;5079638;28;20609;-85
2021/05/06 09:34:36;;;;;;;7.63;2.63;;;10.20;99.90;;;;;;5076691;28;20604;-85
2021/05/06 09:37:03;;;;;;;6.27;2.30;;;10.10;99.90;;;;;;5079334;28;20632;-86
2021/05/06 09:39:29;;;;;;;3.60;2.17;;;10.20;99.90;;;;;;5079504;28;20717;-85
2021/05/06 09:42:07;;;;;;;6.00;2.80;;;10.30;99.90;;;;;;5083661;28;20620;-86
2021/05/06 09:44:52;;;;;;;3.50;2.47;;;10.30;99.90;;;;;;5082170;28;21202;-86
2021/05/06 09:47:22;;;;;;;4.00;2.70;;;10.40;99.90;;;;;;5084121;28;20714;-88
2021/05/06 09:49:54;;;;;;;7.03;2.33;;;10.40;99.90;;;;;;5086375;28;21000;-87
2021/05/06 09:52:20;;;;;;;5.47;3.00;;;10.20;99.90;;;;;;5075578;28;20612;-87
2021/05/06 09:54:49;;;;;;;5.67;2.50;;;10.10;99.90;;;;;;5084013;28;20620;-85
2021/05/06 09:57:29;;;;;;;6.37;2.80;;;10.10;99.90;;;;;;5086282;28;20625;-86
2021/05/06 10:00:14;;;;;;;4.90;2.47;;;10.10;99.90;;;;;;5083570;28;20665;-86
2021/05/06 10:02:41;;;;;;;5.33;3.30;;;9.90;99.90;;;;;;5085056;28;20722;-86
2021/05/06 10:05:10;;;;;;;14.20;5.43;;;9.80;99.90;;;;;;5076784;28;20632;-86
2021/05/06 10:07:39;;;;;;;7.37;4.40;;;9.80;99.90;;;;;;5082868;28;20661;-86
2021/05/06 10:10:08;;;;;;;5.10;3.70;;;9.70;99.90;;;;;;5084801;28;20727;-87
2021/05/06 10:12:36;;;;;;;6.37;3.20;;;9.60;99.90;;;;;;5086056;28;20615;-87
2021/05/06 10:15:05;;;;;;;5.87;3.40;;;9.60;99.90;;;;;;5082192;28;20649;-88
2021/05/06 10:17:32;;;;;;;6.73;3.30;;;9.60;99.90;;;;;;5079061;28;20612;-88
2021/05/06 10:19:59;;;;;;;8.70;4.40;;;9.50;99.90;;;;;;5081749;28;20757;-86
2021/05/06 10:22:30;;;;;;;9.60;5.47;;;9.50;99.90;;;;;;5086728;28;20639;-87
2021/05/06 10:25:01;;;;;;;8.27;4.13;;;9.50;99.90;;;;;;5084627;28;20639;-87
2021/05/06 10:27:32;;;;;;;8.20;3.40;;;9.30;99.90;;;;;;5079937;28;20662;-88
2021/05/06 10:29:59;;;;;;;9.93;3.80;;;9.40;99.90;;;;;;5083309;28;20694;-87
2021/05/06 10:32:27;;;;;;;4.60;2.80;;;9.50;99.90;;;;;;5053368;28;20623;-86
2021/05/06 10:34:55;;;;;;;8.03;3.27;;;9.50;99.90;;;;;;5083650;28;20616;-87
2021/05/06 10:37:25;;;;;;;3.60;2.40;;;9.80;99.90;;;;;;5081662;28;20924;-87
2021/05/06 10:39:53;;;;;;;4.37;2.33;;;9.70;99.90;;;;;;5089284;28;20652;-88
2021/05/06 10:42:34;;;;;;;2.77;1.87;;;9.70;99.90;;;;;;5086084;28;21470;-88
2021/05/06 10:45:27;;;;;;;7.97;2.50;;;9.70;99.90;;;;;;5082357;28;20628;-87
2021/05/06 10:47:55;;;;;;;7.70;2.20;;;9.80;99.90;;;;;;5078350;28;20652;-87
2021/05/06 10:50:25;;;;;;;2.90;2.00;;;9.80;99.90;;;;;;5085660;28;20751;-88
2021/05/06 10:52:53;;;;;;;1.60;1.50;;;9.90;99.90;;;;;;5084043;28;20632;-88
2021/05/06 10:55:40;;;;;;;3.60;2.13;;;9.80;99.90;;;;;;5085718;28;20628;-87
2021/05/06 10:58:41;;;;;;;2.43;1.77;;;9.80;99.90;;;;;;5078326;28;20612;-87
2021/05/06 11:01:20;;;;;;;3.43;1.57;;;9.90;99.90;;;;;;5077164;28;20647;-85
2021/05/06 11:04:10;;;;;;;3.00;1.30;;;10.00;99.90;;;;;;5069661;28;20686;-88
2021/05/06 11:06:44;;;;;;;4.20;2.13;;;10.10;99.90;;;;;;5088172;28;21166;-87
2021/05/06 11:09:53;;;;;;;1.67;1.33;;;10.20;99.90;;;;;;5090626;28;20659;-87
2021/05/06 11:12:30;;;;;;;2.50;1.70;;;10.30;99.90;;;;;;5061903;28;20643;-88
2021/05/06 11:15:22;;;;;;;2.30;1.87;;;10.30;99.90;;;;;;5081548;28;20647;-88
2021/05/06 11:17:55;;;;;;;2.70;1.70;;;10.40;99.90;;;;;;5071253;28;20618;-87
2021/05/06 11:20:47;;;;;;;2.67;2.03;;;10.40;99.90;;;;;;5082833;28;20702;-87
2021/05/06 11:23:29;;;;;;;1.57;1.20;;;10.40;99.90;;;;;;5082653;28;21196;-87
2021/05/06 11:26:17;;;;;;;2.07;1.60;;;10.50;99.90;;;;;;5086250;28;20632;-87
2021/05/06 11:28:50;;;;;;;2.43;1.60;;;10.60;99.90;;;;;;5079870;28;20649;-86
2021/05/06 11:31:58;;;;;;;2.50;1.50;;;10.80;99.90;;;;;;5080363;28;20675;-86
2021/05/06 11:34:51;;;;;;;2.23;1.87;;;11.10;99.90;;;;;;5078067;28;20609;-86
2021/05/06 11:37:23;;;;;;;3.17;2.00;;;11.00;99.90;;;;;;5079706;28;20648;-86
2021/05/06 11:40:06;;;;;;;1.83;1.00;;;10.90;99.90;;;;;;5068560;28;20652;-86
2021/05/06 11:42:38;;;;;;;2.10;1.17;;;10.80;99.90;;;;;;5081024;28;20637;-87
2021/05/06 11:45:08;;;;;;;1.60;1.20;;;10.70;99.90;;;;;;5084986;28;20693;-87
2021/05/06 11:47:34;;;;;;;1.53;0.83;;;10.90;99.90;;;;;;5082603;28;20667;-87
2021/05/06 11:50:21;;;;;;;1.00;0.80;;;11.10;99.90;;;;;;5078562;28;20668;-86
2021/05/06 11:52:47;;;;;;;2.17;1.07;;;11.30;99.90;;;;;;5080759;28;20624;-87
2021/05/06 11:55:35;;;;;;;1.03;0.77;;;11.30;99.90;;;;;;5084216;28;20953;-87
2021/05/06 11:58:02;;;;;;;0.87;0.77;;;11.20;99.90;;;;;;5083751;28;21202;-87
2021/05/06 12:00:29;;;;;;;1.00;1.00;;;11.10;99.90;;;;;;5083931;28;20660;-87
2021/05/06 12:02:58;;;;;;;1.27;1.10;;;11.10;99.90;;;;;;5089645;28;21058;-87
2021/05/06 12:05:52;;;;;;;1.80;1.30;;;11.20;99.90;;;;;;5087712;28;20623;-88
2021/05/06 12:08:20;;;;;;;1.30;1.10;;;11.20;99.90;;;;;;5075553;28;20695;-87
2021/05/06 12:10:46;;;;;;;2.00;1.40;;;11.20;99.90;;;;;;5085636;28;20755;-87
2021/05/06 12:13:13;;;;;;;2.60;1.37;;;11.10;99.90;;;;;;5089103;28;20616;-87
2021/05/06 12:15:40;;;;;;;5.03;1.03;;;11.20;99.90;;;;;;5087603;28;20632;-86
2021/05/06 12:18:20;;;;;;;1.07;0.90;;;11.20;99.90;;;;;;5089066;28;20639;-86
2021/05/06 12:20:55;;;;;;;1.77;0.90;;;11.20;99.90;;;;;;5085946;28;20640;-86
2021/05/06 12:23:23;;;;;;;2.30;1.20;;;11.10;99.90;;;;;;5083806;28;20713;-87
2021/05/06 12:25:50;;;;;;;3.73;1.20;;;11.10;99.90;;;;;;5084813;28;20632;-87
2021/05/06 12:28:18;;;;;;;3.53;1.20;;;10.90;99.90;;;;;;5087353;28;20670;-87
2021/05/06 12:30:46;;;;;;;2.87;1.10;;;10.90;99.90;;;;;;5079126;28;20677;-87
2021/05/06 12:33:13;;;;;;;2.10;1.00;;;10.80;99.90;;;;;;5087442;28;20616;-87
2021/05/06 12:35:49;;;;;;;1.63;1.23;;;10.80;99.90;;;;;;5081647;28;20624;-88
2021/05/06 12:38:17;;;;;;;1.50;1.30;;;10.80;99.90;;;;;;5083820;28;20663;-87
2021/05/06 12:40:48;;;;;;;1.67;0.93;;;11.00;99.90;;;;;;5082952;28;20668;-87
2021/05/06 12:43:27;;;;;;;1.80;1.00;;;10.90;99.90;;;;;;5076158;28;20632;-88
2021/05/06 12:46:01;;;;;;;1.20;1.10;;;10.90;99.90;;;;;;5078632;28;20624;-88
2021/05/06 12:48:43;;;;;;;1.00;0.80;;;11.00;99.90;;;;;;5086914;28;20667;-87
2021/05/06 12:51:12;;;;;;;1.30;1.10;;;11.00;99.90;;;;;;5087826;28;20653;-88
2021/05/06 12:53:57;;;;;;;1.53;1.10;;;10.80;99.90;;;;;;5082388;28;20627;-87
2021/05/06 12:56:28;;;;;;;1.63;1.40;;;10.80;99.90;;;;;;5081351;28;20639;-87
2021/05/06 12:58:54;;;;;;;2.17;0.80;;;10.80;99.90;;;;;;5083989;28;21217;-87
2021/05/06 13:01:30;;;;;;;0.90;0.80;;;10.70;99.90;;;;;;5088115;28;20697;-87
2021/05/06 13:04:01;;;;;;;1.70;1.40;;;10.60;99.90;;;;;;5085313;28;20638;-88
2021/05/06 13:06:35;;;;;;;1.83;1.23;;;10.70;99.90;;;;;;5085847;28;20640;-88
2021/05/06 13:09:12;;;;;;;2.67;1.07;;;10.70;99.90;;;;;;5084678;28;20706;-88
2021/05/06 13:11:40;;;;;;;5.77;1.73;;;10.70;99.90;;;;;;5084518;28;20648;-88
2021/05/06 13:14:06;;;;;;;2.60;1.20;;;10.70;99.90;;;;;;5083358;28;20612;-88
2021/05/06 13:16:42;;;;;;;2.53;1.60;;;10.60;99.90;;;;;;5078792;28;20628;-87
2021/05/06 13:19:10;;;;;;;1.83;1.10;;;10.50;99.90;;;;;;5093745;28;20670;-89
2021/05/06 13:21:47;;;;;;;2.30;1.60;;;10.50;99.90;;;;;;5105652;28;20621;-88
2021/05/06 13:24:14;;;;;;;1.80;1.43;;;10.50;99.90;;;;;;5096268;28;20620;-88
2021/05/06 13:26:43;;;;;;;2.50;1.57;;;10.20;99.90;;;;;;5064701;28;20593;-88
2021/05/06 13:29:14;;;;;;;2.30;1.40;;;10.20;99.90;;;;;;5073272;28;20834;-87
2021/05/06 13:31:42;;;;;;;3.10;1.70;;;10.10;99.90;;;;;;5088544;28;20629;-89
2021/05/06 13:34:19;;;;;;;2.10;1.77;;;10.10;99.90;;;;;;5079331;28;20653;-87
2021/05/06 13:36:58;;;;;;;1.93;1.67;;;10.10;99.90;;;;;;5085164;28;20588;-88
2021/05/06 13:39:26;;;;;;;2.83;2.20;;;10.00;99.90;;;;;;5084696;28;20648;-88
2021/05/06 13:41:52;;;;;;;2.23;2.03;;;9.90;99.90;;;;;;5083063;28;20629;-88
2021/05/06 13:44:21;;;;;;;5.63;2.70;;;9.80;99.90;;;;;;5084321;28;20651;-87
2021/05/06 13:46:52;;;;;;;5.00;3.00;;;9.90;99.90;;;;;;5081610;28;20644;-88
2021/05/06 13:49:19;;;;;;;2.73;2.20;;;9.70;99.90;;;;;;5079821;28;21070;-88
2021/05/06 13:51:46;;;;;;;3.10;2.03;;;9.70;99.90;;;;;;5082842;28;20632;-87
2021/05/06 13:54:12;;;;;;;4.17;2.27;;;9.60;99.90;;;;;;5085729;28;20644;-88
2021/05/06 13:56:39;;;;;;;4.73;3.00;;;9.50;99.90;;;;;;5078858;28;20988;-88
2021/05/06 13:59:05;;;;;;;3.20;2.53;;;9.60;99.90;;;;;;5085674;28;20664;-88
2021/05/06 14:01:32;;;;;;;4.47;2.47;;;9.60;99.90;;;;;;5086812;28;20612;-88
2021/05/06 14:03:59;;;;;;;2.90;2.60;;;9.70;99.90;;;;;;5087936;28;20628;-88
2021/05/06 14:06:25;;;;;;;3.83;2.57;;;9.90;99.90;;;;;;5084650;28;20582;-88
2021/05/06 14:08:52;;;;;;;2.47;1.93;;;9.70;99.90;;;;;;5083563;28;20723;-89
2021/05/06 14:11:19;;;;;;;3.70;2.53;;;9.90;99.90;;;;;;5072384;28;20632;-88
2021/05/06 14:13:46;;;;;;;2.30;1.67;;;10.00;99.90;;;;;;5085226;28;20663;-88
2021/05/06 14:16:12;;;;;;;4.33;3.10;;;10.00;99.90;;;;;;5085862;28;21246;-88
2021/05/06 14:18:39;;;;;;;6.83;2.37;;;10.10;99.90;;;;;;5085182;28;20615;-88
2021/05/06 14:21:07;;;;;;;4.30;2.40;;;10.00;99.90;;;;;;5087953;28;20625;-87
2021/05/06 14:23:38;;;;;;;4.27;2.17;;;10.10;99.90;;;;;;5087886;28;20643;-88
2021/05/06 14:26:07;;;;;;;2.90;2.53;;;10.00;99.90;;;;;;5084144;28;20682;-87
2021/05/06 14:28:33;;;;;;;3.50;2.30;;;9.90;99.90;;;;;;5075592;28;20657;-89
2021/05/06 14:31:00;;;;;;;3.27;2.90;;;10.00;99.90;;;;;;5086105;28;20685;-88
2021/05/06 14:33:26;;;;;;;3.27;2.73;;;9.90;99.90;;;;;;5087649;28;20627;-88
2021/05/06 14:35:54;;;;;;;3.77;2.40;;;9.90;99.90;;;;;;5087917;28;20654;-88
2021/05/06 14:38:20;;;;;;;5.73;2.47;;;9.90;99.90;;;;;;5063232;28;20636;-89
2021/05/06 14:40:46;;;;;;;4.33;3.07;;;9.90;99.90;;;;;;5085941;28;20624;-88
2021/05/06 14:43:13;;;;;;;6.00;2.30;;;9.80;99.90;;;;;;5085374;28;20628;-89
2021/05/06 14:45:39;;;;;;;2.87;2.57;;;9.80;99.90;;;;;;5080093;28;21254;-89
2021/05/06 14:48:10;;;;;;;2.90;1.73;;;9.80;99.90;;;;;;5084459;28;20660;-89
2021/05/06 14:50:36;;;;;;;3.20;1.57;;;9.70;99.90;;;;;;5085594;28;20680;-89
2021/05/06 14:53:03;;;;;;;3.27;1.53;;;9.70;99.90;;;;;;5084449;28;20654;-89
2021/05/06 14:55:30;;;;;;;1.50;1.40;;;9.70;99.90;;;;;;5080554;28;20644;-88
2021/05/06 14:57:57;;;;;;;2.17;1.53;;;9.70;99.90;;;;;;5080040;28;20682;-88
2021/05/06 15:00:24;;;;;;;2.33;1.30;;;9.70;99.90;;;;;;5084972;28;20623;-88
2021/05/06 15:02:51;;;;;;;4.30;1.67;;;9.90;99.90;;;;;;5088105;28;20623;-89
2021/05/06 15:05:19;;;;;;;3.73;1.60;;;9.80;99.90;;;;;;5086460;28;20742;-88
2021/05/06 15:07:46;;;;;;;4.07;1.50;;;9.70;99.90;;;;;;5072433;28;20645;-88
2021/05/06 15:10:13;;;;;;;1.50;1.40;;;9.80;99.90;;;;;;5081179;28;20633;-89
2021/05/06 15:12:43;;;;;;;3.30;1.90;;;9.80;99.90;;;;;;5081107;28;20632;-89
2021/05/06 15:15:10;;;;;;;3.30;2.70;;;9.80;99.90;;;;;;5083714;28;20699;-89
2021/05/06 15:17:36;;;;;;;2.63;2.30;;;9.80;99.90;;;;;;5083993;28;20646;-89
2021/05/06 15:20:03;;;;;;;4.10;3.20;;;9.80;99.90;;;;;;5089206;28;20628;-89
2021/05/06 15:22:31;;;;;;;5.00;4.30;;;9.80;99.90;;;;;;5096216;28;20685;-88
2021/05/06 15:24:57;;;;;;;5.83;3.10;;;9.90;99.90;;;;;;5088493;28;20624;-88
2021/05/06 15:27:25;;;;;;;4.10;3.00;;;10.00;99.90;;;;;;5082713;28;21142;-89
2021/05/06 15:29:52;;;;;;;3.07;2.83;;;10.00;99.90;;;;;;5081134;28;20664;-89
2021/05/06 15:32:18;;;;;;;3.30;3.00;;;9.90;99.90;;;;;;5078041;28;20626;-88
2021/05/06 15:34:46;;;;;;;3.00;2.70;;;9.90;99.90;;;;;;5079434;28;20584;-88
2021/05/06 15:37:13;;;;;;;4.60;3.10;;;9.80;99.90;;;;;;5087315;28;21089;-88